createdAt,value
2016-12-25T00:00:04.734Z,6.37
2016-12-25T00:01:05.309Z,6.27
2016-12-25T00:02:05.252Z,6.19
2016-12-25T00:03:04.913Z,6.36
2016-12-25T00:04:04.874Z,6.22
2016-12-25T00:05:05.131Z,6.25
2016-12-25T00:06:05.109Z,6.21
2016-12-25T00:07:04.752Z,6.21
2016-12-25T00:08:05.020Z,6.18
2016-12-25T00:09:04.673Z,6.19
2016-12-25T00:10:04.938Z,6.19
2016-12-25T00:11:04.604Z,6.18
2016-12-25T00:12:04.855Z,6.25
2016-12-25T00:13:04.820Z,6.17
2016-12-25T00:14:04.776Z,6.17
2016-12-25T00:15:04.736Z,6.19
2016-12-25T00:16:04.695Z,6.17
2016-12-25T00:17:04.664Z,6.19
2016-12-25T00:18:04.621Z,6.22
2016-12-25T00:19:04.271Z,6.15
2016-12-25T00:20:04.536Z,6.08
2016-12-25T00:21:04.495Z,6.17
2016-12-25T00:22:04.476Z,6.21
2016-12-25T00:23:04.416Z,6.18
2016-12-25T00:24:04.074Z,6.12
2016-12-25T00:25:04.338Z,6.11
2016-12-25T00:26:04.328Z,6.12
2016-12-25T00:27:04.263Z,6.11
2016-12-25T00:28:04.216Z,6.17
2016-12-25T00:29:04.177Z,6.12
2016-12-25T00:30:04.140Z,6.12
2016-12-25T00:31:03.794Z,6.12
2016-12-25T00:32:03.759Z,6.12
2016-12-25T00:33:03.713Z,6.15
2016-12-25T00:34:03.680Z,6.14
2016-12-25T00:35:03.943Z,6.11
2016-12-25T00:36:03.924Z,6.09
2016-12-25T00:37:03.256Z,6.08
2016-12-25T00:38:03.521Z,6.09
2016-12-25T00:39:03.478Z,6.09
2016-12-25T00:40:03.739Z,6.06
2016-12-25T00:41:03.400Z,6.08
2016-12-25T00:42:03.392Z,6.09
2016-12-25T00:43:03.627Z,6.14
2016-12-25T00:44:03.604Z,6.08
2016-12-25T00:45:03.547Z,6.17
2016-12-25T00:46:03.505Z,6.18
2016-12-25T00:47:03.462Z,6.21
2016-12-25T00:48:03.120Z,6.25
2016-12-25T00:49:03.387Z,6.21
2016-12-25T00:50:03.345Z,6.21
2016-12-25T00:51:03.027Z,6.22
2016-12-25T00:52:02.965Z,6.18
2016-12-25T00:53:03.227Z,6.17
2016-12-25T00:54:02.881Z,6.17
2016-12-25T00:55:03.144Z,6.18
2016-12-25T00:56:02.803Z,6.11
2016-12-25T00:57:02.467Z,6.09
2016-12-25T00:58:03.024Z,6.11
2016-12-25T00:59:02.985Z,6.09
2016-12-25T01:00:02.952Z,6.14
2016-12-25T01:01:02.905Z,6.17
2016-12-25T01:02:02.566Z,6.14
2016-12-25T01:03:02.529Z,6.06
2016-12-25T01:04:02.796Z,6.18
2016-12-25T01:05:02.449Z,6.09
2016-12-25T01:06:02.404Z,6.22
2016-12-25T01:07:02.072Z,6.27
2016-12-25T01:08:02.631Z,6.15
2016-12-25T01:09:02.288Z,6.17
2016-12-25T01:10:02.550Z,6.19
2016-12-25T01:11:02.207Z,6.19
2016-12-25T01:12:01.872Z,6.19
2016-12-25T01:13:02.136Z,6.19
2016-12-25T01:14:02.093Z,6.18
2016-12-25T01:15:02.351Z,6.17
2016-12-25T01:16:02.010Z,6.22
2016-12-25T01:17:01.670Z,6.18
2016-12-25T01:18:02.233Z,6.21
2016-12-25T01:19:02.196Z,6.27
2016-12-25T01:20:01.851Z,6.19
2016-12-25T01:21:02.115Z,6.3
2016-12-25T01:22:01.774Z,6.33
2016-12-25T01:23:02.036Z,6.34
2016-12-25T01:24:01.394Z,6.36
2016-12-25T01:25:01.961Z,6.38
2016-12-25T01:26:01.616Z,6.37
2016-12-25T01:27:01.888Z,6.36
2016-12-25T01:28:01.533Z,6.44
2016-12-25T01:29:01.501Z,6.43
2016-12-25T01:30:01.767Z,6.4
2016-12-25T01:31:01.111Z,6.44
2016-12-25T01:32:01.679Z,6.48
2016-12-25T01:33:01.639Z,6.44
2016-12-25T01:34:01.602Z,6.46
2016-12-25T01:35:01.557Z,6.46
2016-12-25T01:36:01.524Z,6.49
2016-12-25T01:37:01.484Z,6.46
2016-12-25T01:38:01.140Z,6.46
2016-12-25T01:39:01.407Z,6.46
2016-12-25T01:40:01.390Z,6.44
2016-12-25T01:41:01.324Z,6.44
2016-12-25T01:42:01.277Z,6.51
2016-12-25T01:43:01.243Z,6.51
2016-12-25T01:44:00.902Z,6.52
2016-12-25T01:45:01.165Z,6.55
2016-12-25T01:46:01.121Z,6.55
2016-12-25T01:47:01.087Z,6.64
2016-12-25T01:48:00.746Z,6.58
2016-12-25T01:49:01.009Z,6.58
2016-12-25T01:50:00.991Z,6.62
2016-12-25T01:51:00.926Z,6.64
2016-12-25T01:52:00.890Z,6.61
2016-12-25T01:53:00.550Z,6.62
2016-12-25T01:54:00.517Z,6.69
2016-12-25T01:55:00.768Z,6.64
2016-12-25T01:56:00.429Z,6.67
2016-12-25T01:57:00.697Z,6.67
2016-12-25T01:58:00.652Z,6.69
2016-12-25T01:59:00.615Z,6.67
2016-12-25T02:00:00.268Z,6.66
2016-12-25T02:01:00.533Z,6.74
2016-12-25T02:02:00.493Z,6.67
2016-12-25T02:03:00.460Z,6.71
2016-12-25T02:04:00.113Z,6.69
2016-12-25T02:05:00.076Z,6.7
2016-12-25T02:06:00.034Z,6.74
2016-12-25T02:07:00.298Z,6.74
2016-12-25T02:08:00.259Z,6.76
2016-12-25T02:09:00.220Z,6.73
2016-12-25T02:10:00.178Z,6.73
2016-12-25T02:11:00.141Z,6.69
2016-12-25T02:12:00.101Z,6.71
2016-12-25T02:13:00.062Z,6.69
2016-12-25T02:14:00.023Z,6.76
2016-12-25T02:14:59.984Z,6.73
2016-12-25T02:15:59.951Z,6.69
2016-12-25T02:16:59.619Z,6.71
2016-12-25T02:17:59.863Z,6.69
2016-12-25T02:18:59.826Z,6.7
2016-12-25T02:19:59.785Z,6.69
2016-12-25T02:20:59.441Z,6.67
2016-12-25T02:21:59.100Z,6.67
2016-12-25T02:22:59.362Z,6.61
2016-12-25T02:23:59.626Z,6.64
2016-12-25T02:24:59.588Z,6.61
2016-12-25T02:25:59.556Z,6.64
2016-12-25T02:26:59.231Z,6.59
2016-12-25T02:27:59.191Z,6.62
2016-12-25T02:28:59.455Z,6.54
2016-12-25T02:29:59.085Z,6.58
2016-12-25T02:30:59.352Z,6.54
2016-12-25T02:31:59.007Z,6.55
2016-12-25T02:32:59.271Z,6.58
2016-12-25T02:33:58.932Z,6.46
2016-12-25T02:34:59.194Z,6.49
2016-12-25T02:35:58.855Z,6.46
2016-12-25T02:36:59.113Z,6.46
2016-12-25T02:37:59.083Z,6.49
2016-12-25T02:38:59.038Z,6.46
2016-12-25T02:39:58.997Z,6.4
2016-12-25T02:40:58.959Z,6.43
2016-12-25T02:41:58.924Z,6.38
2016-12-25T02:42:58.583Z,6.44
2016-12-25T02:43:58.841Z,6.44
2016-12-25T02:44:58.497Z,6.34
2016-12-25T02:45:58.770Z,6.4
2016-12-25T02:46:58.724Z,6.37
2016-12-25T02:47:58.381Z,6.33
2016-12-25T02:48:58.645Z,6.37
2016-12-25T02:49:57.998Z,6.25
2016-12-25T02:50:58.563Z,6.28
2016-12-25T02:51:58.525Z,6.19
2016-12-25T02:52:58.483Z,6.21
2016-12-25T02:53:58.450Z,6.19
2016-12-25T02:54:58.403Z,6.27
2016-12-25T02:55:57.760Z,6.18
2016-12-25T02:56:58.327Z,6.25
2016-12-25T02:57:58.287Z,6.17
2016-12-25T02:58:57.946Z,6.21
2016-12-25T02:59:58.205Z,6.19
2016-12-25T03:00:57.869Z,6.25
2016-12-25T03:01:58.127Z,6.22
2016-12-25T03:02:58.085Z,6.18
2016-12-25T03:03:57.748Z,6.11
2016-12-25T03:04:58.010Z,6.11
2016-12-25T03:05:57.669Z,6.14
2016-12-25T03:06:57.932Z,6.08
2016-12-25T03:07:57.888Z,6.09
2016-12-25T03:08:57.853Z,6.17
2016-12-25T03:09:57.815Z,6.09
2016-12-25T03:10:57.467Z,6.15
2016-12-25T03:11:57.738Z,6.11
2016-12-25T03:12:57.390Z,6.15
2016-12-25T03:13:57.657Z,6.11
2016-12-25T03:14:57.312Z,6.04
2016-12-25T03:15:57.273Z,6.01
2016-12-25T03:16:57.534Z,6.01
2016-12-25T03:17:57.492Z,6.03
2016-12-25T03:18:57.456Z,6.04
2016-12-25T03:19:57.116Z,6.03
2016-12-25T03:20:57.379Z,6.09
2016-12-25T03:21:57.339Z,6.06
2016-12-25T03:22:57.017Z,6.14
2016-12-25T03:23:57.262Z,6.11
2016-12-25T03:24:57.222Z,6.09
2016-12-25T03:25:56.873Z,6.03
2016-12-25T03:26:56.837Z,6.11
2016-12-25T03:27:57.097Z,6.03
2016-12-25T03:28:57.060Z,6.03
2016-12-25T03:29:57.019Z,6.08
2016-12-25T03:30:56.978Z,6.03
2016-12-25T03:31:56.942Z,6
2016-12-25T03:32:56.906Z,6.08
2016-12-25T03:33:56.865Z,6.01
2016-12-25T03:34:56.518Z,6.01
2016-12-25T03:35:56.479Z,6
2016-12-25T03:36:56.741Z,5.93
2016-12-25T03:37:56.401Z,5.97
2016-12-25T03:38:56.362Z,5.96
2016-12-25T03:39:56.621Z,6
2016-12-25T03:40:56.285Z,6.01
2016-12-25T03:41:55.940Z,5.97
2016-12-25T03:42:56.604Z,5.94
2016-12-25T03:43:56.468Z,6.03
2016-12-25T03:44:56.426Z,5.93
2016-12-25T03:45:56.386Z,6
2016-12-25T03:46:56.348Z,5.97
2016-12-25T03:47:56.303Z,6
2016-12-25T03:48:56.267Z,5.91
2016-12-25T03:49:55.919Z,5.99
2016-12-25T03:50:55.884Z,5.94
2016-12-25T03:51:56.148Z,6.06
2016-12-25T03:52:56.107Z,6.01
2016-12-25T03:53:56.070Z,5.96
2016-12-25T03:54:56.026Z,6.01
2016-12-25T03:55:55.682Z,5.97
2016-12-25T03:56:55.947Z,5.96
2016-12-25T03:57:55.909Z,6.03
2016-12-25T03:58:55.569Z,6
2016-12-25T03:59:55.528Z,6.08
2016-12-25T04:00:55.497Z,6.03
2016-12-25T04:01:55.448Z,6.04
2016-12-25T04:02:55.410Z,5.99
2016-12-25T04:03:55.062Z,5.97
2016-12-25T04:04:55.631Z,6
2016-12-25T04:05:55.591Z,5.97
2016-12-25T04:06:55.550Z,5.97
2016-12-25T04:07:55.511Z,5.99
2016-12-25T04:08:55.473Z,5.93
2016-12-25T04:09:55.137Z,5.94
2016-12-25T04:10:55.396Z,5.97
2016-12-25T04:11:55.046Z,5.96
2016-12-25T04:12:55.313Z,5.91
2016-12-25T04:13:55.277Z,6
2016-12-25T04:14:54.928Z,5.91
2016-12-25T04:15:55.191Z,5.83
2016-12-25T04:16:55.160Z,5.96
2016-12-25T04:17:54.506Z,5.86
2016-12-25T04:18:54.771Z,5.86
2016-12-25T04:19:55.032Z,5.89
2016-12-25T04:20:54.992Z,5.89
2016-12-25T04:21:54.347Z,5.78
2016-12-25T04:22:54.913Z,5.9
2016-12-25T04:23:54.879Z,5.89
2016-12-25T04:24:54.535Z,5.86
2016-12-25T04:25:54.790Z,5.78
2016-12-25T04:26:54.757Z,5.9
2016-12-25T04:27:54.712Z,5.91
2016-12-25T04:28:54.375Z,5.83
2016-12-25T04:29:54.631Z,5.89
2016-12-25T04:30:54.592Z,5.85
2016-12-25T04:31:54.554Z,5.83
2016-12-25T04:32:54.518Z,5.89
2016-12-25T04:33:54.170Z,5.81
2016-12-25T04:34:54.137Z,5.89
2016-12-25T04:35:54.397Z,5.83
2016-12-25T04:36:54.060Z,5.85
2016-12-25T04:37:54.015Z,5.85
2016-12-25T04:38:54.278Z,5.86
2016-12-25T04:39:54.237Z,5.78
2016-12-25T04:40:54.198Z,5.81
2016-12-25T04:41:54.159Z,5.82
2016-12-25T04:42:54.121Z,5.76
2016-12-25T04:43:54.077Z,5.9
2016-12-25T04:44:53.436Z,5.82
2016-12-25T04:45:54.002Z,5.83
2016-12-25T04:46:53.962Z,5.81
2016-12-25T04:47:53.622Z,5.82
2016-12-25T04:48:53.881Z,5.81
2016-12-25T04:49:53.540Z,5.78
2016-12-25T04:50:53.192Z,5.83
2016-12-25T04:51:53.762Z,5.85
2016-12-25T04:52:53.417Z,5.86
2016-12-25T04:53:53.681Z,5.81
2016-12-25T04:54:53.344Z,5.82
2016-12-25T04:55:53.599Z,5.83
2016-12-25T04:56:53.560Z,5.9
2016-12-25T04:57:53.224Z,5.81
2016-12-25T04:58:53.483Z,5.86
2016-12-25T04:59:53.440Z,5.86
2016-12-25T05:00:53.406Z,5.83
2016-12-25T05:01:53.062Z,5.85
2016-12-25T05:02:53.325Z,5.94
2016-12-25T05:03:52.981Z,5.93
2016-12-25T05:04:53.242Z,5.9
2016-12-25T05:05:53.202Z,5.93
2016-12-25T05:06:52.861Z,5.83
2016-12-25T05:07:52.518Z,5.89
2016-12-25T05:08:53.084Z,5.97
2016-12-25T05:09:53.043Z,5.97
2016-12-25T05:10:53.009Z,5.99
2016-12-25T05:11:52.964Z,5.99
2016-12-25T05:12:52.622Z,5.97
2016-12-25T05:13:52.880Z,6.04
2016-12-25T05:14:52.540Z,5.96
2016-12-25T05:15:52.500Z,6.03
2016-12-25T05:16:52.768Z,6.03
2016-12-25T05:17:52.420Z,6.04
2016-12-25T05:18:52.685Z,5.97
2016-12-25T05:19:52.645Z,5.93
2016-12-25T05:20:52.302Z,6.03
2016-12-25T05:21:52.567Z,5.97
2016-12-25T05:22:52.227Z,6.11
2016-12-25T05:23:52.484Z,6.11
2016-12-25T05:24:52.451Z,6.15
2016-12-25T05:25:52.404Z,6.15
2016-12-25T05:26:52.361Z,6.04
2016-12-25T05:27:51.721Z,6.09
2016-12-25T05:28:51.983Z,6.14
2016-12-25T05:29:52.243Z,6.12
2016-12-25T05:30:52.209Z,6.08
2016-12-25T05:31:52.162Z,6.18
2016-12-25T05:32:51.824Z,6.08
2016-12-25T05:33:52.086Z,6.18
2016-12-25T05:34:51.443Z,6.14
2016-12-25T05:35:51.400Z,6.19
2016-12-25T05:36:51.967Z,6.22
2016-12-25T05:37:51.928Z,6.21
2016-12-25T05:38:51.887Z,6.19
2016-12-25T05:39:51.851Z,6.18
2016-12-25T05:40:51.505Z,6.25
2016-12-25T05:41:51.464Z,6.25
2016-12-25T05:42:51.424Z,6.17
2016-12-25T05:43:51.689Z,6.21
2016-12-25T05:44:51.652Z,6.19
2016-12-25T05:45:51.603Z,6.25
2016-12-25T05:46:51.566Z,6.22
2016-12-25T05:47:51.229Z,6.22
2016-12-25T05:48:51.487Z,6.25
2016-12-25T05:49:51.450Z,6.21
2016-12-25T05:50:51.110Z,6.28
2016-12-25T05:51:51.376Z,6.3
2016-12-25T05:52:51.334Z,6.28
2016-12-25T05:53:50.988Z,6.3
2016-12-25T05:54:51.257Z,6.19
2016-12-25T05:55:50.905Z,6.27
2016-12-25T05:56:51.169Z,6.27
2016-12-25T05:57:51.127Z,6.25
2016-12-25T05:58:50.785Z,6.27
2016-12-25T05:59:50.756Z,6.21
2016-12-25T06:00:50.706Z,6.21
2016-12-25T06:01:50.668Z,6.31
2016-12-25T06:02:50.933Z,6.36
2016-12-25T06:03:50.589Z,6.25
2016-12-25T06:04:50.852Z,6.3
2016-12-25T06:05:50.810Z,6.19
2016-12-25T06:06:50.770Z,6.25
2016-12-25T06:07:50.729Z,6.25
2016-12-25T06:08:50.692Z,6.17
2016-12-25T06:09:50.350Z,6.25
2016-12-25T06:10:50.638Z,6.28
2016-12-25T06:11:50.572Z,6.25
2016-12-25T06:12:50.533Z,6.21
2016-12-25T06:13:50.491Z,6.25
2016-12-25T06:14:50.451Z,6.22
2016-12-25T06:15:50.111Z,6.21
2016-12-25T06:16:50.068Z,6.22
2016-12-25T06:17:50.329Z,6.28
2016-12-25T06:18:50.290Z,6.31
2016-12-25T06:19:50.248Z,6.19
2016-12-25T06:20:49.910Z,6.22
2016-12-25T06:21:49.875Z,6.25
2016-12-25T06:22:50.130Z,6.25
2016-12-25T06:23:49.791Z,6.28
2016-12-25T06:24:49.751Z,6.28
2016-12-25T06:25:49.715Z,6.21
2016-12-25T06:26:49.673Z,6.34
2016-12-25T06:27:49.933Z,6.36
2016-12-25T06:28:49.902Z,6.36
2016-12-25T06:29:49.556Z,6.37
2016-12-25T06:30:49.818Z,6.4
2016-12-25T06:31:49.775Z,6.34
2016-12-25T06:32:49.736Z,6.36
2016-12-25T06:33:49.104Z,6.43
2016-12-25T06:34:49.660Z,6.43
2016-12-25T06:35:49.615Z,6.44
2016-12-25T06:36:49.583Z,6.4
2016-12-25T06:37:49.235Z,6.4
2016-12-25T06:38:49.193Z,6.38
2016-12-25T06:39:49.456Z,6.34
2016-12-25T06:40:49.433Z,6.38
2016-12-25T06:41:49.377Z,6.43
2016-12-25T06:42:49.036Z,6.38
2016-12-25T06:43:49.299Z,6.44
2016-12-25T06:44:49.262Z,6.41
2016-12-25T06:45:49.220Z,6.44
2016-12-25T06:46:49.180Z,6.46
2016-12-25T06:47:48.835Z,6.43
2016-12-25T06:48:49.100Z,6.38
2016-12-25T06:49:48.760Z,6.38
2016-12-25T06:50:49.020Z,6.38
2016-12-25T06:51:48.677Z,6.43
2016-12-25T06:52:48.635Z,6.37
2016-12-25T06:53:48.903Z,6.4
2016-12-25T06:54:48.560Z,6.4
2016-12-25T06:55:48.821Z,6.31
2016-12-25T06:56:48.784Z,6.31
2016-12-25T06:57:48.437Z,6.31
2016-12-25T06:58:48.397Z,6.34
2016-12-25T06:59:48.659Z,6.18
2016-12-25T07:00:48.619Z,6.34
2016-12-25T07:01:48.585Z,6.36
2016-12-25T07:02:48.243Z,6.37
2016-12-25T07:03:48.506Z,6.36
2016-12-25T07:04:48.164Z,6.22
2016-12-25T07:05:48.422Z,6.22
2016-12-25T07:06:48.081Z,6.36
2016-12-25T07:07:48.346Z,6.4
2016-12-25T07:08:48.304Z,6.31
2016-12-25T07:09:47.958Z,6.36
2016-12-25T07:10:48.223Z,6.3
2016-12-25T07:11:48.189Z,6.3
2016-12-25T07:12:48.142Z,6.37
2016-12-25T07:13:48.106Z,6.36
2016-12-25T07:14:47.761Z,6.22
2016-12-25T07:15:48.023Z,6.21
2016-12-25T07:16:47.984Z,6.37
2016-12-25T07:17:47.946Z,6.31
2016-12-25T07:18:47.603Z,6.33
2016-12-25T07:19:47.866Z,6.37
2016-12-25T07:20:47.823Z,6.36
2016-12-25T07:21:47.785Z,6.34
2016-12-25T07:22:47.744Z,6.33
2016-12-25T07:23:47.109Z,6.34
2016-12-25T07:24:47.668Z,6.37
2016-12-25T07:25:47.626Z,6.31
2016-12-25T07:26:47.284Z,6.34
2016-12-25T07:27:47.548Z,6.31
2016-12-25T07:28:47.221Z,6.34
2016-12-25T07:29:47.468Z,6.34
2016-12-25T07:30:47.424Z,6.37
2016-12-25T07:31:47.394Z,6.34
2016-12-25T07:32:47.350Z,6.33
2016-12-25T07:33:47.003Z,6.37
2016-12-25T07:34:46.961Z,6.38
2016-12-25T07:35:46.928Z,6.4
2016-12-25T07:36:46.883Z,6.43
2016-12-25T07:37:46.846Z,6.37
2016-12-25T07:38:47.110Z,6.43
2016-12-25T07:39:47.068Z,6.4
2016-12-25T07:40:46.730Z,6.44
2016-12-25T07:41:46.987Z,6.4
2016-12-25T07:42:46.348Z,6.38
2016-12-25T07:43:46.907Z,6.41
2016-12-25T07:44:46.574Z,6.48
2016-12-25T07:45:46.828Z,6.38
2016-12-25T07:46:46.790Z,6.4
2016-12-25T07:47:46.750Z,6.38
2016-12-25T07:48:46.409Z,6.54
2016-12-25T07:49:46.670Z,6.51
2016-12-25T07:50:46.631Z,6.38
2016-12-25T07:51:45.988Z,6.41
2016-12-25T07:52:46.551Z,6.4
2016-12-25T07:53:46.209Z,6.43
2016-12-25T07:54:46.171Z,6.43
2016-12-25T07:55:46.433Z,6.48
2016-12-25T07:56:46.089Z,6.41
2016-12-25T07:57:46.057Z,6.38
2016-12-25T07:58:46.312Z,6.44
2016-12-25T07:59:45.974Z,6.44
2016-12-25T08:00:45.936Z,6.4
2016-12-25T08:01:46.194Z,6.41
2016-12-25T08:02:45.853Z,6.37
2016-12-25T08:03:45.810Z,6.44
2016-12-25T08:04:46.074Z,6.38
2016-12-25T08:05:45.731Z,6.43
2016-12-25T08:06:45.995Z,6.38
2016-12-25T08:07:45.961Z,6.43
2016-12-25T08:08:45.615Z,6.48
2016-12-25T08:09:45.876Z,6.43
2016-12-25T08:10:45.532Z,6.49
2016-12-25T08:11:45.498Z,6.46
2016-12-25T08:12:45.451Z,6.46
2016-12-25T08:13:45.718Z,6.43
2016-12-25T08:14:45.680Z,6.44
2016-12-25T08:15:45.338Z,6.49
2016-12-25T08:16:45.601Z,6.49
2016-12-25T08:17:45.558Z,6.46
2016-12-25T08:18:45.218Z,6.43
2016-12-25T08:19:45.475Z,6.43
2016-12-25T08:20:45.440Z,6.56
2016-12-25T08:21:45.403Z,6.46
2016-12-25T08:22:45.058Z,6.54
2016-12-25T08:23:45.020Z,6.64
2016-12-25T08:24:44.980Z,6.55
2016-12-25T08:25:45.244Z,6.51
2016-12-25T08:26:44.596Z,6.51
2016-12-25T08:27:44.863Z,6.55
2016-12-25T08:28:44.819Z,6.54
2016-12-25T08:29:45.080Z,6.51
2016-12-25T08:30:44.739Z,6.56
2016-12-25T08:31:44.696Z,6.51
2016-12-25T08:32:44.964Z,6.55
2016-12-25T08:33:44.927Z,6.56
2016-12-25T08:34:44.881Z,6.59
2016-12-25T08:35:44.538Z,6.55
2016-12-25T08:36:44.802Z,6.58
2016-12-25T08:37:44.471Z,6.61
2016-12-25T08:38:44.722Z,6.66
2016-12-25T08:39:44.697Z,6.67
2016-12-25T08:40:44.343Z,6.58
2016-12-25T08:41:44.608Z,6.66
2016-12-25T08:42:44.570Z,6.58
2016-12-25T08:43:43.929Z,6.76
2016-12-25T08:44:44.489Z,6.71
2016-12-25T08:45:44.443Z,6.7
2016-12-25T08:46:44.107Z,6.64
2016-12-25T08:47:44.062Z,6.7
2016-12-25T08:48:44.326Z,6.73
2016-12-25T08:49:43.984Z,6.7
2016-12-25T08:50:44.246Z,6.73
2016-12-25T08:51:44.206Z,6.71
2016-12-25T08:52:44.168Z,6.74
2016-12-25T08:53:43.831Z,6.73
2016-12-25T08:54:44.093Z,6.67
2016-12-25T08:55:43.748Z,6.77
2016-12-25T08:56:44.019Z,6.8
2016-12-25T08:57:43.981Z,6.8
2016-12-25T08:58:43.624Z,6.88
2016-12-25T08:59:43.595Z,6.81
2016-12-25T09:00:43.849Z,6.8
2016-12-25T09:01:43.818Z,6.85
2016-12-25T09:02:43.811Z,6.76
2016-12-25T09:03:43.734Z,6.8
2016-12-25T09:04:43.392Z,6.84
2016-12-25T09:05:43.660Z,6.77
2016-12-25T09:06:43.616Z,6.84
2016-12-25T09:07:43.273Z,6.88
2016-12-25T09:08:43.548Z,6.85
2016-12-25T09:09:43.203Z,6.91
2016-12-25T09:10:43.468Z,6.87
2016-12-25T09:11:43.422Z,6.91
2016-12-25T09:12:43.391Z,6.95
2016-12-25T09:13:43.056Z,6.85
2016-12-25T09:14:43.300Z,6.84
2016-12-25T09:15:42.988Z,6.94
2016-12-25T09:16:43.229Z,6.92
2016-12-25T09:17:43.185Z,6.97
2016-12-25T09:18:43.144Z,6.97
2016-12-25T09:19:43.104Z,7.06
2016-12-25T09:20:43.063Z,7.13
2016-12-25T09:21:42.720Z,7.05
2016-12-25T09:22:42.987Z,6.97
2016-12-25T09:23:42.947Z,6.99
2016-12-25T09:24:42.611Z,7.1
2016-12-25T09:25:42.569Z,7.13
2016-12-25T09:26:42.833Z,6.99
2016-12-25T09:27:42.792Z,7.09
2016-12-25T09:28:42.778Z,7.13
2016-12-25T09:29:42.410Z,7.12
2016-12-25T09:30:42.393Z,7.12
2016-12-25T09:31:42.636Z,7.17
2016-12-25T09:32:42.593Z,7.21
2016-12-25T09:33:42.562Z,7.21
2016-12-25T09:34:42.215Z,7.2
2016-12-25T09:35:42.476Z,7.17
2016-12-25T09:36:42.137Z,7.2
2016-12-25T09:37:42.396Z,7.17
2016-12-25T09:38:42.062Z,7.25
2016-12-25T09:39:42.318Z,7.28
2016-12-25T09:40:41.978Z,7.28
2016-12-25T09:41:42.241Z,7.23
2016-12-25T09:42:41.902Z,7.27
2016-12-25T09:43:42.180Z,7.37
2016-12-25T09:44:41.822Z,7.34
2016-12-25T09:45:41.781Z,7.34
2016-12-25T09:46:42.049Z,7.4
2016-12-25T09:47:41.706Z,7.42
2016-12-25T09:48:41.665Z,7.42
2016-12-25T09:49:41.930Z,7.35
2016-12-25T09:50:41.890Z,7.42
2016-12-25T09:51:41.550Z,7.39
2016-12-25T09:52:41.512Z,7.45
2016-12-25T09:53:41.161Z,7.42
2016-12-25T09:54:41.736Z,7.45
2016-12-25T09:55:41.399Z,7.48
2016-12-25T09:56:41.355Z,7.43
2016-12-25T09:57:41.614Z,7.43
2016-12-25T09:58:41.284Z,7.4
2016-12-25T09:59:41.240Z,7.34
2016-12-25T10:00:41.501Z,7.39
2016-12-25T10:01:41.471Z,7.42
2016-12-25T10:02:41.121Z,7.35
2016-12-25T10:03:41.397Z,7.39
2016-12-25T10:04:41.345Z,7.4
2016-12-25T10:05:41.312Z,7.48
2016-12-25T10:06:41.277Z,7.5
2016-12-25T10:07:41.226Z,7.5
2016-12-25T10:08:41.193Z,7.46
2016-12-25T10:09:41.183Z,7.5
2016-12-25T10:10:41.112Z,7.53
2016-12-25T10:11:41.074Z,7.45
2016-12-25T10:12:41.038Z,7.5
2016-12-25T10:13:40.701Z,7.49
2016-12-25T10:14:40.655Z,7.48
2016-12-25T10:15:40.919Z,7.46
2016-12-25T10:16:40.577Z,7.52
2016-12-25T10:17:40.845Z,7.57
2016-12-25T10:18:40.801Z,7.5
2016-12-25T10:19:40.766Z,7.48
2016-12-25T10:20:40.114Z,7.53
2016-12-25T10:21:40.683Z,7.5
2016-12-25T10:22:40.342Z,7.58
2016-12-25T10:23:40.610Z,7.49
2016-12-25T10:24:40.273Z,7.67
2016-12-25T10:25:40.226Z,7.58
2016-12-25T10:26:40.493Z,7.64
2016-12-25T10:27:40.458Z,7.71
2016-12-25T10:28:40.109Z,7.82
2016-12-25T10:29:40.071Z,7.86
2016-12-25T10:30:40.341Z,7.93
2016-12-25T10:31:39.994Z,7.93
2016-12-25T10:32:39.952Z,7.95
2016-12-25T10:33:39.918Z,8.01
2016-12-25T10:34:40.189Z,7.9
2016-12-25T10:35:39.842Z,7.97
2016-12-25T10:36:40.104Z,8.01
2016-12-25T10:37:39.761Z,8.15
2016-12-25T10:38:40.033Z,8.2
2016-12-25T10:39:39.989Z,8.19
2016-12-25T10:40:39.644Z,8.19
2016-12-25T10:41:39.306Z,8.19
2016-12-25T10:42:39.570Z,8.34
2016-12-25T10:43:39.837Z,8.52
2016-12-25T10:44:39.498Z,8.5
2016-12-25T10:45:39.757Z,8.55
2016-12-25T10:46:39.719Z,8.63
2016-12-25T10:47:39.374Z,8.68
2016-12-25T10:48:39.644Z,8.83
2016-12-25T10:49:39.608Z,9.08
2016-12-25T10:50:39.266Z,9.1
2016-12-25T10:51:39.558Z,9.13
2016-12-25T10:52:39.487Z,9.08
2016-12-25T10:53:39.474Z,9.05
2016-12-25T10:54:39.408Z,9.11
2016-12-25T10:55:39.378Z,9.01
2016-12-25T10:56:39.343Z,8.98
2016-12-25T10:57:38.999Z,9.02
2016-12-25T10:58:38.970Z,8.99
2016-12-25T10:59:38.926Z,9.02
2016-12-25T11:00:38.582Z,9.08
2016-12-25T11:01:38.844Z,9.17
2016-12-25T11:02:39.115Z,9.24
2016-12-25T11:03:38.775Z,9.32
2016-12-25T11:04:38.736Z,9.29
2016-12-25T11:05:38.699Z,9.48
2016-12-25T11:06:38.661Z,9.54
2016-12-25T11:07:38.623Z,9.54
2016-12-25T11:08:38.595Z,9.47
2016-12-25T11:09:38.855Z,9.43
2016-12-25T11:10:38.816Z,9.43
2016-12-25T11:11:38.775Z,9.32
2016-12-25T11:12:38.131Z,9.23
2016-12-25T11:13:38.703Z,9.31
2016-12-25T11:14:38.667Z,9.26
2016-12-25T11:15:38.327Z,9.2
2016-12-25T11:16:38.591Z,9.26
2016-12-25T11:17:38.258Z,9.17
2016-12-25T11:18:38.516Z,9.1
2016-12-25T11:19:38.206Z,9.14
2016-12-25T11:20:38.143Z,9.08
2016-12-25T11:21:38.110Z,9.02
2016-12-25T11:22:38.378Z,9.02
2016-12-25T11:23:38.027Z,9.05
2016-12-25T11:24:38.294Z,9.02
2016-12-25T11:25:38.257Z,9.14
2016-12-25T11:26:38.222Z,9.17
2016-12-25T11:27:38.184Z,9.02
2016-12-25T11:28:38.149Z,9.05
2016-12-25T11:29:38.110Z,9.05
2016-12-25T11:30:37.770Z,9.08
2016-12-25T11:31:38.037Z,9.08
2016-12-25T11:32:37.993Z,9.01
2016-12-25T11:33:37.958Z,8.91
2016-12-25T11:34:37.620Z,9.02
2016-12-25T11:35:37.282Z,8.84
2016-12-25T11:36:37.842Z,8.95
2016-12-25T11:37:37.805Z,8.95
2016-12-25T11:38:37.776Z,8.99
2016-12-25T11:39:37.432Z,8.94
2016-12-25T11:40:37.393Z,8.95
2016-12-25T11:41:37.355Z,9.08
2016-12-25T11:42:37.317Z,9.13
2016-12-25T11:43:37.279Z,9.08
2016-12-25T11:44:37.547Z,9.28
2016-12-25T11:45:37.518Z,9.33
2016-12-25T11:46:37.476Z,9.28
2016-12-25T11:47:37.134Z,9.36
2016-12-25T11:48:37.092Z,9.47
2016-12-25T11:49:37.356Z,9.42
2016-12-25T11:50:37.323Z,9.4
2016-12-25T11:51:37.458Z,9.46
2016-12-25T11:52:37.252Z,9.48
2016-12-25T11:53:37.209Z,9.46
2016-12-25T11:54:36.873Z,9.42
2016-12-25T11:55:36.833Z,9.54
2016-12-25T11:56:36.816Z,9.51
2016-12-25T11:57:37.059Z,9.56
2016-12-25T11:58:37.030Z,9.54
2016-12-25T11:59:36.988Z,9.64
2016-12-25T12:00:36.949Z,9.64
2016-12-25T12:01:36.916Z,9.69
2016-12-25T12:02:36.879Z,9.66
2016-12-25T12:03:36.537Z,9.64
2016-12-25T12:04:36.796Z,9.68
2016-12-25T12:05:36.770Z,9.65
2016-12-25T12:06:36.421Z,9.54
2016-12-25T12:07:36.390Z,9.5
2016-12-25T12:08:36.653Z,9.46
2016-12-25T12:09:36.310Z,9.4
2016-12-25T12:10:36.273Z,9.47
2016-12-25T12:11:36.541Z,9.4
2016-12-25T12:12:36.514Z,9.4
2016-12-25T12:13:36.164Z,9.39
2016-12-25T12:14:36.125Z,9.56
2016-12-25T12:15:36.394Z,9.51
2016-12-25T12:16:36.353Z,9.48
2016-12-25T12:17:36.320Z,9.57
2016-12-25T12:18:36.278Z,9.48
2016-12-25T12:19:36.250Z,9.5
2016-12-25T12:20:35.929Z,9.4
2016-12-25T12:21:35.562Z,9.39
2016-12-25T12:22:35.829Z,9.36
2016-12-25T12:23:36.095Z,9.31
2016-12-25T12:24:35.755Z,9.28
2016-12-25T12:25:35.718Z,9.29
2016-12-25T12:26:35.992Z,9.36
2016-12-25T12:27:35.944Z,9.35
2016-12-25T12:28:35.605Z,9.24
2016-12-25T12:29:35.872Z,9.24
2016-12-25T12:30:35.535Z,9.28
2016-12-25T12:31:35.499Z,9.31
2016-12-25T12:32:35.762Z,9.31
2016-12-25T12:33:35.722Z,9.35
2016-12-25T12:34:35.693Z,9.29
2016-12-25T12:35:35.650Z,9.31
2016-12-25T12:36:35.620Z,9.2
2016-12-25T12:37:35.572Z,9.21
2016-12-25T12:38:35.536Z,9.15
2016-12-25T12:39:35.495Z,9.1
2016-12-25T12:40:35.460Z,9.11
2016-12-25T12:41:35.119Z,9.18
2016-12-25T12:42:35.384Z,9.18
2016-12-25T12:43:35.346Z,9.33
2016-12-25T12:44:35.010Z,9.28
2016-12-25T12:45:34.972Z,9.28
2016-12-25T12:46:35.234Z,9.28
2016-12-25T12:47:35.197Z,9.26
2016-12-25T12:48:34.860Z,9.32
2016-12-25T12:49:34.830Z,9.29
2016-12-25T12:50:35.086Z,9.28
2016-12-25T12:51:35.057Z,9.31
2016-12-25T12:52:35.010Z,9.28
2016-12-25T12:53:34.974Z,9.28
2016-12-25T12:54:34.934Z,9.31
2016-12-25T12:55:34.897Z,9.35
2016-12-25T12:56:34.866Z,9.43
2016-12-25T12:57:34.823Z,9.47
2016-12-25T12:58:34.789Z,9.4
2016-12-25T12:59:34.454Z,9.48
2016-12-25T13:00:34.707Z,9.56
2016-12-25T13:01:34.674Z,9.56
2016-12-25T13:02:34.639Z,9.56
2016-12-25T13:03:34.598Z,9.53
2016-12-25T13:04:34.574Z,9.57
2016-12-25T13:05:34.219Z,9.54
2016-12-25T13:06:34.488Z,9.54
2016-12-25T13:07:34.147Z,9.57
2016-12-25T13:08:34.110Z,9.53
2016-12-25T13:09:33.774Z,9.53
2016-12-25T13:10:34.337Z,9.66
2016-12-25T13:11:34.298Z,9.66
2016-12-25T13:12:34.261Z,9.68
2016-12-25T13:13:34.230Z,9.57
2016-12-25T13:14:33.887Z,9.58
2016-12-25T13:15:33.852Z,9.58
2016-12-25T13:16:34.125Z,9.53
2016-12-25T13:17:33.773Z,9.51
2016-12-25T13:18:33.743Z,9.53
2016-12-25T13:19:33.996Z,9.56
2016-12-25T13:20:33.665Z,9.53